sensor_id;sensor_type;location;lat;lon;timestamp;P1;durP1;ratioP1;P2;durP2;ratioP2
21360;SDS011;10839;43.206;23.550;2023-05-10T00:01:29;16.15;;;12.75;;
21360;SDS011;10839;43.206;23.550;2023-05-10T00:03:55;17.38;;;13.05;;
21360;SDS011;10839;43.206;23.550;2023-05-10T00:06:21;18.65;;;13.63;;
21360;SDS011;10839;43.206;23.550;2023-05-10T00:08:47;23.55;;;14.90;;
21360;SDS011;10839;43.206;23.550;2023-05-10T00:11:13;23.13;;;14.90;;
21360;SDS011;10839;43.206;23.550;2023-05-10T00:13:38;23.55;;;14.70;;
21360;SDS011;10839;43.206;23.550;2023-05-10T00:16:04;20.60;;;14.93;;
21360;SDS011;10839;43.206;23.550;2023-05-10T00:18:30;20.48;;;14.60;;
21360;SDS011;10839;43.206;23.550;2023-05-10T00:20:56;19.60;;;14.45;;
21360;SDS011;10839;43.206;23.550;2023-05-10T00:23:22;20.55;;;15.60;;
21360;SDS011;10839;43.206;23.550;2023-05-10T00:25:48;24.35;;;15.88;;
21360;SDS011;10839;43.206;23.550;2023-05-10T00:28:13;20.52;;;13.75;;
21360;SDS011;10839;43.206;23.550;2023-05-10T00:30:39;23.67;;;16.67;;
21360;SDS011;10839;43.206;23.550;2023-05-10T00:33:05;23.75;;;17.00;;
21360;SDS011;10839;43.206;23.550;2023-05-10T00:35:31;25.70;;;17.48;;
21360;SDS011;10839;43.206;23.550;2023-05-10T00:37:57;24.77;;;16.98;;
21360;SDS011;10839;43.206;23.550;2023-05-10T00:40:23;27.25;;;17.55;;
21360;SDS011;10839;43.206;23.550;2023-05-10T00:42:53;23.90;;;16.73;;
21360;SDS011;10839;43.206;23.550;2023-05-10T00:45:20;20.60;;;15.90;;
21360;SDS011;10839;43.206;23.550;2023-05-10T00:47:45;29.30;;;15.65;;
21360;SDS011;10839;43.206;23.550;2023-05-10T00:50:12;25.05;;;16.75;;
21360;SDS011;10839;43.206;23.550;2023-05-10T00:52:38;24.23;;;15.07;;
21360;SDS011;10839;43.206;23.550;2023-05-10T00:55:04;24.75;;;16.80;;
21360;SDS011;10839;43.206;23.550;2023-05-10T00:57:31;27.75;;;16.40;;
21360;SDS011;10839;43.206;23.550;2023-05-10T00:59:57;30.20;;;16.75;;
21360;SDS011;10839;43.206;23.550;2023-05-10T01:02:24;25.73;;;16.65;;
21360;SDS011;10839;43.206;23.550;2023-05-10T01:04:50;27.67;;;16.92;;
21360;SDS011;10839;43.206;23.550;2023-05-10T01:07:17;32.75;;;17.95;;
21360;SDS011;10839;43.206;23.550;2023-05-10T01:09:43;30.92;;;17.27;;
21360;SDS011;10839;43.206;23.550;2023-05-10T01:12:10;24.27;;;16.65;;
21360;SDS011;10839;43.206;23.550;2023-05-10T01:14:36;29.20;;;19.02;;
21360;SDS011;10839;43.206;23.550;2023-05-10T01:17:03;24.65;;;16.75;;
21360;SDS011;10839;43.206;23.550;2023-05-10T01:19:31;25.42;;;17.38;;
21360;SDS011;10839;43.206;23.550;2023-05-10T01:27:59;23.58;;;16.95;;
21360;SDS011;10839;43.206;23.550;2023-05-10T01:30:55;27.65;;;17.30;;
21360;SDS011;10839;43.206;23.550;2023-05-10T01:36:55;27.85;;;17.25;;
21360;SDS011;10839;43.206;23.550;2023-05-10T01:39:35;32.70;;;21.10;;
21360;SDS011;10839;43.206;23.550;2023-05-10T01:42:09;31.80;;;22.05;;
21360;SDS011;10839;43.206;23.550;2023-05-10T01:47:40;32.38;;;21.20;;
21360;SDS011;10839;43.206;23.550;2023-05-10T01:50:15;35.13;;;20.95;;
21360;SDS011;10839;43.206;23.550;2023-05-10T01:52:44;30.05;;;18.88;;
21360;SDS011;10839;43.206;23.550;2023-05-10T01:55:15;26.65;;;17.92;;
21360;SDS011;10839;43.206;23.550;2023-05-10T01:57:43;24.33;;;16.55;;
21360;SDS011;10839;43.206;23.550;2023-05-10T02:00:11;24.55;;;17.13;;
21360;SDS011;10839;43.206;23.550;2023-05-10T02:02:40;26.77;;;16.33;;
21360;SDS011;10839;43.206;23.550;2023-05-10T02:05:12;27.05;;;17.40;;
21360;SDS011;10839;43.206;23.550;2023-05-10T02:07:40;25.10;;;15.80;;
21360;SDS011;10839;43.206;23.550;2023-05-10T02:10:07;21.75;;;14.65;;
21360;SDS011;10839;43.206;23.550;2023-05-10T02:12:35;44.70;;;28.08;;
21360;SDS011;10839;43.206;23.550;2023-05-10T02:15:02;23.48;;;16.08;;
21360;SDS011;10839;43.206;23.550;2023-05-10T02:17:30;29.50;;;18.77;;
21360;SDS011;10839;43.206;23.550;2023-05-10T02:19:57;27.08;;;16.17;;
21360;SDS011;10839;43.206;23.550;2023-05-10T02:22:25;23.05;;;15.27;;
21360;SDS011;10839;43.206;23.550;2023-05-10T02:24:54;23.30;;;16.02;;
21360;SDS011;10839;43.206;23.550;2023-05-10T02:27:23;25.13;;;15.93;;
21360;SDS011;10839;43.206;23.550;2023-05-10T02:29:50;23.13;;;15.60;;
21360;SDS011;10839;43.206;23.550;2023-05-10T02:32:19;24.70;;;15.93;;
21360;SDS011;10839;43.206;23.550;2023-05-10T02:34:46;22.95;;;15.57;;
21360;SDS011;10839;43.206;23.550;2023-05-10T02:37:18;23.20;;;15.50;;
21360;SDS011;10839;43.206;23.550;2023-05-10T02:39:47;23.80;;;14.52;;
21360;SDS011;10839;43.206;23.550;2023-05-10T02:42:20;24.52;;;15.23;;
21360;SDS011;10839;43.206;23.550;2023-05-10T02:44:52;23.23;;;14.98;;
21360;SDS011;10839;43.206;23.550;2023-05-10T02:47:20;23.83;;;14.80;;
21360;SDS011;10839;43.206;23.550;2023-05-10T02:49:47;33.33;;;18.40;;
21360;SDS011;10839;43.206;23.550;2023-05-10T02:52:15;22.77;;;14.85;;
21360;SDS011;10839;43.206;23.550;2023-05-10T02:54:46;31.52;;;19.42;;
21360;SDS011;10839;43.206;23.550;2023-05-10T02:57:16;22.45;;;14.93;;
21360;SDS011;10839;43.206;23.550;2023-05-10T02:59:47;22.52;;;13.95;;
21360;SDS011;10839;43.206;23.550;2023-05-10T03:02:12;21.02;;;14.27;;
21360;SDS011;10839;43.206;23.550;2023-05-10T03:04:40;18.50;;;13.73;;
21360;SDS011;10839;43.206;23.550;2023-05-10T03:07:05;17.90;;;13.35;;
21360;SDS011;10839;43.206;23.550;2023-05-10T03:09:33;33.58;;;20.52;;
21360;SDS011;10839;43.206;23.550;2023-05-10T03:12:13;20.63;;;13.77;;
21360;SDS011;10839;43.206;23.550;2023-05-10T03:17:57;22.52;;;13.57;;
21360;SDS011;10839;43.206;23.550;2023-05-10T03:20:31;19.80;;;12.77;;
21360;SDS011;10839;43.206;23.550;2023-05-10T03:23:10;20.45;;;13.35;;
21360;SDS011;10839;43.206;23.550;2023-05-10T03:25:39;20.10;;;13.30;;
21360;SDS011;10839;43.206;23.550;2023-05-10T03:28:06;19.83;;;13.57;;
21360;SDS011;10839;43.206;23.550;2023-05-10T03:30:34;20.65;;;14.45;;
21360;SDS011;10839;43.206;23.550;2023-05-10T03:33:05;20.42;;;14.38;;
21360;SDS011;10839;43.206;23.550;2023-05-10T03:35:33;22.85;;;15.20;;
21360;SDS011;10839;43.206;23.550;2023-05-10T03:38:00;23.27;;;15.43;;
21360;SDS011;10839;43.206;23.550;2023-05-10T03:40:26;27.33;;;16.08;;
21360;SDS011;10839;43.206;23.550;2023-05-10T03:42:58;24.95;;;16.75;;
21360;SDS011;10839;43.206;23.550;2023-05-10T03:45:25;24.73;;;16.50;;
21360;SDS011;10839;43.206;23.550;2023-05-10T03:47:51;24.48;;;16.40;;
21360;SDS011;10839;43.206;23.550;2023-05-10T03:50:18;23.55;;;16.65;;
21360;SDS011;10839;43.206;23.550;2023-05-10T03:52:44;27.17;;;17.65;;
21360;SDS011;10839;43.206;23.550;2023-05-10T03:55:10;27.10;;;17.67;;
21360;SDS011;10839;43.206;23.550;2023-05-10T03:57:37;29.00;;;17.95;;
21360;SDS011;10839;43.206;23.550;2023-05-10T04:00:03;28.17;;;18.17;;
21360;SDS011;10839;43.206;23.550;2023-05-10T04:02:39;29.20;;;18.27;;
21360;SDS011;10839;43.206;23.550;2023-05-10T04:05:07;30.67;;;18.33;;
21360;SDS011;10839;43.206;23.550;2023-05-10T04:07:34;32.13;;;19.27;;
21360;SDS011;10839;43.206;23.550;2023-05-10T04:10:00;31.02;;;19.67;;
21360;SDS011;10839;43.206;23.550;2023-05-10T04:12:26;31.50;;;20.02;;
21360;SDS011;10839;43.206;23.550;2023-05-10T04:14:52;33.65;;;19.98;;
21360;SDS011;10839;43.206;23.550;2023-05-10T04:17:18;34.30;;;19.88;;
21360;SDS011;10839;43.206;23.550;2023-05-10T04:19:43;30.52;;;18.08;;
21360;SDS011;10839;43.206;23.550;2023-05-10T04:22:09;36.97;;;19.58;;
21360;SDS011;10839;43.206;23.550;2023-05-10T04:24:35;31.75;;;18.88;;
21360;SDS011;10839;43.206;23.550;2023-05-10T04:27:01;31.27;;;19.75;;
21360;SDS011;10839;43.206;23.550;2023-05-10T04:29:26;37.28;;;20.58;;
21360;SDS011;10839;43.206;23.550;2023-05-10T04:31:52;35.08;;;22.73;;
21360;SDS011;10839;43.206;23.550;2023-05-10T04:34:20;34.63;;;20.58;;
21360;SDS011;10839;43.206;23.550;2023-05-10T04:36:46;33.88;;;19.98;;
21360;SDS011;10839;43.206;23.550;2023-05-10T04:39:12;29.00;;;17.88;;
21360;SDS011;10839;43.206;23.550;2023-05-10T04:41:39;26.33;;;17.70;;
21360;SDS011;10839;43.206;23.550;2023-05-10T04:44:05;24.20;;;15.75;;
21360;SDS011;10839;43.206;23.550;2023-05-10T04:46:31;24.17;;;15.38;;
21360;SDS011;10839;43.206;23.550;2023-05-10T04:48:57;27.20;;;16.67;;
21360;SDS011;10839;43.206;23.550;2023-05-10T04:51:23;26.10;;;16.35;;
21360;SDS011;10839;43.206;23.550;2023-05-10T04:53:48;29.75;;;16.67;;
21360;SDS011;10839;43.206;23.550;2023-05-10T04:56:14;27.38;;;17.02;;
21360;SDS011;10839;43.206;23.550;2023-05-10T04:58:41;26.75;;;17.73;;
21360;SDS011;10839;43.206;23.550;2023-05-10T05:01:07;30.45;;;17.52;;
21360;SDS011;10839;43.206;23.550;2023-05-10T05:03:36;24.92;;;16.35;;
21360;SDS011;10839;43.206;23.550;2023-05-10T05:06:02;27.20;;;17.67;;
21360;SDS011;10839;43.206;23.550;2023-05-10T05:08:28;23.67;;;16.73;;
21360;SDS011;10839;43.206;23.550;2023-05-10T05:10:54;26.92;;;17.85;;
21360;SDS011;10839;43.206;23.550;2023-05-10T05:13:20;25.02;;;17.27;;
21360;SDS011;10839;43.206;23.550;2023-05-10T05:15:46;25.65;;;16.60;;
21360;SDS011;10839;43.206;23.550;2023-05-10T05:18:12;24.80;;;16.20;;
21360;SDS011;10839;43.206;23.550;2023-05-10T05:20:38;23.75;;;16.00;;
21360;SDS011;10839;43.206;23.550;2023-05-10T05:23:04;24.98;;;16.25;;
21360;SDS011;10839;43.206;23.550;2023-05-10T05:25:30;25.63;;;16.55;;
21360;SDS011;10839;43.206;23.550;2023-05-10T05:27:55;22.23;;;14.52;;
21360;SDS011;10839;43.206;23.550;2023-05-10T05:30:21;23.83;;;14.70;;
21360;SDS011;10839;43.206;23.550;2023-05-10T05:32:47;23.60;;;15.55;;
21360;SDS011;10839;43.206;23.550;2023-05-10T05:35:13;21.92;;;15.13;;
21360;SDS011;10839;43.206;23.550;2023-05-10T05:37:39;22.25;;;14.50;;
21360;SDS011;10839;43.206;23.550;2023-05-10T05:40:05;22.08;;;14.23;;
21360;SDS011;10839;43.206;23.550;2023-05-10T05:42:31;21.33;;;14.52;;
21360;SDS011;10839;43.206;23.550;2023-05-10T05:44:57;21.08;;;14.27;;
21360;SDS011;10839;43.206;23.550;2023-05-10T05:47:23;21.17;;;14.20;;
21360;SDS011;10839;43.206;23.550;2023-05-10T05:49:49;19.60;;;14.23;;
21360;SDS011;10839;43.206;23.550;2023-05-10T05:52:15;34.17;;;22.35;;
21360;SDS011;10839;43.206;23.550;2023-05-10T05:54:41;36.22;;;24.10;;
21360;SDS011;10839;43.206;23.550;2023-05-10T05:57:06;33.78;;;20.17;;
21360;SDS011;10839;43.206;23.550;2023-05-10T05:59:32;28.45;;;18.88;;
21360;SDS011;10839;43.206;23.550;2023-05-10T06:01:58;27.13;;;17.33;;
21360;SDS011;10839;43.206;23.550;2023-05-10T06:04:24;25.45;;;17.13;;
21360;SDS011;10839;43.206;23.550;2023-05-10T06:06:50;25.10;;;15.63;;
21360;SDS011;10839;43.206;23.550;2023-05-10T06:09:16;25.23;;;14.65;;
21360;SDS011;10839;43.206;23.550;2023-05-10T06:11:41;20.27;;;13.13;;
21360;SDS011;10839;43.206;23.550;2023-05-10T06:14:07;18.02;;;12.43;;
21360;SDS011;10839;43.206;23.550;2023-05-10T06:16:33;15.60;;;10.65;;
21360;SDS011;10839;43.206;23.550;2023-05-10T06:19:00;17.75;;;12.25;;
21360;SDS011;10839;43.206;23.550;2023-05-10T06:21:26;17.65;;;11.52;;
21360;SDS011;10839;43.206;23.550;2023-05-10T06:23:52;16.77;;;10.70;;
21360;SDS011;10839;43.206;23.550;2023-05-10T06:26:17;16.95;;;11.50;;
21360;SDS011;10839;43.206;23.550;2023-05-10T06:28:43;18.02;;;11.15;;
21360;SDS011;10839;43.206;23.550;2023-05-10T06:31:09;17.05;;;10.80;;
21360;SDS011;10839;43.206;23.550;2023-05-10T06:33:36;19.48;;;12.25;;
21360;SDS011;10839;43.206;23.550;2023-05-10T06:36:02;16.98;;;11.77;;
21360;SDS011;10839;43.206;23.550;2023-05-10T06:38:28;19.40;;;13.50;;
21360;SDS011;10839;43.206;23.550;2023-05-10T06:40:54;19.02;;;13.60;;
21360;SDS011;10839;43.206;23.550;2023-05-10T06:43:20;15.73;;;11.70;;
21360;SDS011;10839;43.206;23.550;2023-05-10T06:45:46;20.65;;;13.77;;
21360;SDS011;10839;43.206;23.550;2023-05-10T06:48:14;21.45;;;14.52;;
21360;SDS011;10839;43.206;23.550;2023-05-10T06:50:39;20.70;;;15.90;;
21360;SDS011;10839;43.206;23.550;2023-05-10T06:53:05;19.48;;;14.02;;
21360;SDS011;10839;43.206;23.550;2023-05-10T06:55:31;19.20;;;14.52;;
21360;SDS011;10839;43.206;23.550;2023-05-10T06:57:57;19.73;;;15.77;;
21360;SDS011;10839;43.206;23.550;2023-05-10T07:00:23;17.98;;;12.75;;
21360;SDS011;10839;43.206;23.550;2023-05-10T07:02:48;13.25;;;9.60;;
21360;SDS011;10839;43.206;23.550;2023-05-10T07:05:14;14.57;;;10.10;;
21360;SDS011;10839;43.206;23.550;2023-05-10T07:07:40;16.67;;;10.18;;
21360;SDS011;10839;43.206;23.550;2023-05-10T07:10:07;15.82;;;8.90;;
21360;SDS011;10839;43.206;23.550;2023-05-10T07:12:33;10.05;;;7.75;;
21360;SDS011;10839;43.206;23.550;2023-05-10T07:14:59;16.80;;;9.20;;
21360;SDS011;10839;43.206;23.550;2023-05-10T07:17:25;13.05;;;8.05;;
21360;SDS011;10839;43.206;23.550;2023-05-10T07:19:51;10.77;;;7.43;;
21360;SDS011;10839;43.206;23.550;2023-05-10T07:22:17;12.95;;;8.70;;
21360;SDS011;10839;43.206;23.550;2023-05-10T07:24:43;16.30;;;10.15;;
21360;SDS011;10839;43.206;23.550;2023-05-10T07:27:09;13.85;;;8.07;;
21360;SDS011;10839;43.206;23.550;2023-05-10T07:29:34;8.38;;;6.18;;
21360;SDS011;10839;43.206;23.550;2023-05-10T07:32:01;9.48;;;6.72;;
21360;SDS011;10839;43.206;23.550;2023-05-10T07:34:27;11.35;;;6.60;;
21360;SDS011;10839;43.206;23.550;2023-05-10T07:36:53;10.52;;;6.57;;
21360;SDS011;10839;43.206;23.550;2023-05-10T07:39:19;11.88;;;7.53;;
21360;SDS011;10839;43.206;23.550;2023-05-10T07:41:48;10.80;;;6.65;;
21360;SDS011;10839;43.206;23.550;2023-05-10T07:44:13;12.65;;;7.68;;
21360;SDS011;10839;43.206;23.550;2023-05-10T07:46:39;9.02;;;6.38;;
21360;SDS011;10839;43.206;23.550;2023-05-10T07:49:05;10.52;;;5.80;;
21360;SDS011;10839;43.206;23.550;2023-05-10T07:51:31;10.15;;;6.28;;
21360;SDS011;10839;43.206;23.550;2023-05-10T07:53:57;6.70;;;5.40;;
21360;SDS011;10839;43.206;23.550;2023-05-10T07:56:26;9.90;;;6.15;;
21360;SDS011;10839;43.206;23.550;2023-05-10T07:58:58;10.55;;;7.65;;
21360;SDS011;10839;43.206;23.550;2023-05-10T08:01:25;8.32;;;6.57;;
21360;SDS011;10839;43.206;23.550;2023-05-10T08:03:51;9.98;;;7.07;;
21360;SDS011;10839;43.206;23.550;2023-05-10T08:06:19;12.35;;;6.60;;
21360;SDS011;10839;43.206;23.550;2023-05-10T08:08:46;7.95;;;6.38;;
21360;SDS011;10839;43.206;23.550;2023-05-10T08:11:17;6.88;;;5.22;;
21360;SDS011;10839;43.206;23.550;2023-05-10T08:13:43;10.43;;;6.00;;
21360;SDS011;10839;43.206;23.550;2023-05-10T08:16:10;9.00;;;5.20;;
21360;SDS011;10839;43.206;23.550;2023-05-10T08:18:36;9.57;;;5.85;;
21360;SDS011;10839;43.206;23.550;2023-05-10T08:21:02;8.38;;;6.43;;
21360;SDS011;10839;43.206;23.550;2023-05-10T08:23:28;8.77;;;5.18;;
21360;SDS011;10839;43.206;23.550;2023-05-10T08:25:54;8.00;;;5.70;;
21360;SDS011;10839;43.206;23.550;2023-05-10T08:28:20;8.43;;;5.22;;
21360;SDS011;10839;43.206;23.550;2023-05-10T08:30:46;6.85;;;5.30;;
21360;SDS011;10839;43.206;23.550;2023-05-10T08:33:11;8.02;;;6.38;;
21360;SDS011;10839;43.206;23.550;2023-05-10T08:35:37;9.05;;;5.70;;
21360;SDS011;10839;43.206;23.550;2023-05-10T08:38:03;8.55;;;5.93;;
21360;SDS011;10839;43.206;23.550;2023-05-10T08:40:29;7.32;;;5.30;;
21360;SDS011;10839;43.206;23.550;2023-05-10T08:43:13;10.57;;;6.55;;
21360;SDS011;10839;43.206;23.550;2023-05-10T08:45:42;11.15;;;5.35;;
21360;SDS011;10839;43.206;23.550;2023-05-10T08:48:13;9.35;;;4.97;;
21360;SDS011;10839;43.206;23.550;2023-05-10T08:50:40;10.55;;;5.13;;
21360;SDS011;10839;43.206;23.550;2023-05-10T08:53:11;7.53;;;4.55;;
21360;SDS011;10839;43.206;23.550;2023-05-10T08:55:39;7.13;;;4.25;;
21360;SDS011;10839;43.206;23.550;2023-05-10T08:58:07;7.97;;;5.50;;
21360;SDS011;10839;43.206;23.550;2023-05-10T09:00:34;10.82;;;5.18;;
21360;SDS011;10839;43.206;23.550;2023-05-10T09:03:01;6.32;;;4.57;;
21360;SDS011;10839;43.206;23.550;2023-05-10T09:05:29;9.25;;;4.75;;
21360;SDS011;10839;43.206;23.550;2023-05-10T09:07:55;10.60;;;5.38;;
21360;SDS011;10839;43.206;23.550;2023-05-10T09:10:20;10.18;;;7.18;;
21360;SDS011;10839;43.206;23.550;2023-05-10T09:12:47;12.30;;;7.97;;
21360;SDS011;10839;43.206;23.550;2023-05-10T09:15:16;10.75;;;6.22;;
21360;SDS011;10839;43.206;23.550;2023-05-10T09:17:45;8.27;;;5.75;;
21360;SDS011;10839;43.206;23.550;2023-05-10T09:20:11;6.57;;;4.00;;
21360;SDS011;10839;43.206;23.550;2023-05-10T09:22:37;7.57;;;5.03;;
21360;SDS011;10839;43.206;23.550;2023-05-10T09:25:04;6.60;;;4.55;;
21360;SDS011;10839;43.206;23.550;2023-05-10T09:27:35;10.77;;;5.15;;
21360;SDS011;10839;43.206;23.550;2023-05-10T09:30:02;9.73;;;6.50;;
21360;SDS011;10839;43.206;23.550;2023-05-10T09:32:41;8.80;;;5.03;;
21360;SDS011;10839;43.206;23.550;2023-05-10T09:35:12;6.80;;;4.80;;
21360;SDS011;10839;43.206;23.550;2023-05-10T09:37:41;9.20;;;4.30;;
21360;SDS011;10839;43.206;23.550;2023-05-10T09:40:16;10.40;;;4.95;;
21360;SDS011;10839;43.206;23.550;2023-05-10T09:45:40;8.80;;;4.07;;
21360;SDS011;10839;43.206;23.550;2023-05-10T09:48:06;8.52;;;3.80;;
21360;SDS011;10839;43.206;23.550;2023-05-10T09:50:32;7.45;;;3.80;;
21360;SDS011;10839;43.206;23.550;2023-05-10T09:53:00;6.53;;;3.60;;
21360;SDS011;10839;43.206;23.550;2023-05-10T09:55:45;5.90;;;3.55;;
21360;SDS011;10839;43.206;23.550;2023-05-10T09:58:12;6.45;;;3.83;;
21360;SDS011;10839;43.206;23.550;2023-05-10T10:00:42;12.88;;;4.50;;
21360;SDS011;10839;43.206;23.550;2023-05-10T10:03:13;5.85;;;3.58;;
21360;SDS011;10839;43.206;23.550;2023-05-10T10:05:41;4.32;;;2.80;;
21360;SDS011;10839;43.206;23.550;2023-05-10T10:08:08;5.03;;;3.28;;
21360;SDS011;10839;43.206;23.550;2023-05-10T10:10:35;8.85;;;3.10;;
21360;SDS011;10839;43.206;23.550;2023-05-10T10:13:01;6.15;;;3.72;;
21360;SDS011;10839;43.206;23.550;2023-05-10T10:15:27;7.03;;;3.78;;
21360;SDS011;10839;43.206;23.550;2023-05-10T10:17:53;5.65;;;2.55;;
21360;SDS011;10839;43.206;23.550;2023-05-10T10:20:21;4.65;;;3.30;;
21360;SDS011;10839;43.206;23.550;2023-05-10T10:22:48;10.75;;;3.45;;
21360;SDS011;10839;43.206;23.550;2023-05-10T10:25:14;8.05;;;3.75;;
21360;SDS011;10839;43.206;23.550;2023-05-10T10:35:54;4.72;;;3.17;;
21360;SDS011;10839;43.206;23.550;2023-05-10T10:38:23;4.88;;;3.35;;
21360;SDS011;10839;43.206;23.550;2023-05-10T10:41:01;5.45;;;3.05;;
21360;SDS011;10839;43.206;23.550;2023-05-10T10:43:29;6.78;;;3.33;;
21360;SDS011;10839;43.206;23.550;2023-05-10T10:46:14;4.60;;;3.30;;
21360;SDS011;10839;43.206;23.550;2023-05-10T10:52:12;4.13;;;2.58;;
21360;SDS011;10839;43.206;23.550;2023-05-10T10:54:41;6.30;;;3.10;;
21360;SDS011;10839;43.206;23.550;2023-05-10T10:57:17;5.75;;;2.63;;
21360;SDS011;10839;43.206;23.550;2023-05-10T10:59:44;6.00;;;2.70;;
21360;SDS011;10839;43.206;23.550;2023-05-10T11:05:12;4.32;;;3.05;;
21360;SDS011;10839;43.206;23.550;2023-05-10T11:07:59;4.50;;;2.58;;
21360;SDS011;10839;43.206;23.550;2023-05-10T11:10:26;5.60;;;2.90;;
21360;SDS011;10839;43.206;23.550;2023-05-10T11:12:59;3.30;;;2.53;;
21360;SDS011;10839;43.206;23.550;2023-05-10T11:15:28;5.00;;;2.72;;
21360;SDS011;10839;43.206;23.550;2023-05-10T11:17:59;2.25;;;2.00;;
21360;SDS011;10839;43.206;23.550;2023-05-10T11:20:41;6.35;;;2.40;;
21360;SDS011;10839;43.206;23.550;2023-05-10T11:23:13;4.68;;;2.22;;
21360;SDS011;10839;43.206;23.550;2023-05-10T11:25:44;3.20;;;2.13;;
21360;SDS011;10839;43.206;23.550;2023-05-10T11:28:11;5.40;;;2.88;;
21360;SDS011;10839;43.206;23.550;2023-05-10T11:30:38;10.35;;;2.50;;
21360;SDS011;10839;43.206;23.550;2023-05-10T11:33:06;4.32;;;2.75;;
21360;SDS011;10839;43.206;23.550;2023-05-10T11:35:39;6.22;;;2.53;;
21360;SDS011;10839;43.206;23.550;2023-05-10T11:38:07;3.83;;;2.58;;
21360;SDS011;10839;43.206;23.550;2023-05-10T11:40:34;2.47;;;2.00;;
21360;SDS011;10839;43.206;23.550;2023-05-10T11:43:02;4.40;;;2.45;;
21360;SDS011;10839;43.206;23.550;2023-05-10T11:45:29;4.90;;;2.50;;
21360;SDS011;10839;43.206;23.550;2023-05-10T11:47:58;2.75;;;2.40;;
21360;SDS011;10839;43.206;23.550;2023-05-10T11:50:25;5.78;;;2.47;;
21360;SDS011;10839;43.206;23.550;2023-05-10T11:52:51;6.10;;;2.72;;
21360;SDS011;10839;43.206;23.550;2023-05-10T11:55:18;8.32;;;4.05;;
21360;SDS011;10839;43.206;23.550;2023-05-10T11:57:44;4.47;;;2.95;;
21360;SDS011;10839;43.206;23.550;2023-05-10T12:00:11;7.32;;;2.85;;
21360;SDS011;10839;43.206;23.550;2023-05-10T12:02:38;7.28;;;4.90;;
21360;SDS011;10839;43.206;23.550;2023-05-10T12:05:04;2.88;;;2.50;;
21360;SDS011;10839;43.206;23.550;2023-05-10T12:07:31;5.03;;;2.60;;
21360;SDS011;10839;43.206;23.550;2023-05-10T12:10:07;4.68;;;2.50;;
21360;SDS011;10839;43.206;23.550;2023-05-10T12:12:39;9.68;;;5.88;;
21360;SDS011;10839;43.206;23.550;2023-05-10T12:17:47;3.92;;;2.60;;
21360;SDS011;10839;43.206;23.550;2023-05-10T12:20:14;5.97;;;2.70;;
21360;SDS011;10839;43.206;23.550;2023-05-10T12:22:57;3.33;;;2.38;;
21360;SDS011;10839;43.206;23.550;2023-05-10T12:25:24;3.63;;;2.70;;
21360;SDS011;10839;43.206;23.550;2023-05-10T12:27:57;4.15;;;2.42;;
21360;SDS011;10839;43.206;23.550;2023-05-10T12:30:29;7.82;;;2.55;;
21360;SDS011;10839;43.206;23.550;2023-05-10T12:33:13;7.88;;;2.70;;
21360;SDS011;10839;43.206;23.550;2023-05-10T12:38:25;4.18;;;2.50;;
21360;SDS011;10839;43.206;23.550;2023-05-10T12:41:23;5.68;;;2.60;;
21360;SDS011;10839;43.206;23.550;2023-05-10T12:43:50;3.88;;;2.47;;
21360;SDS011;10839;43.206;23.550;2023-05-10T12:46:17;3.28;;;2.53;;
21360;SDS011;10839;43.206;23.550;2023-05-10T12:48:44;3.70;;;2.72;;
21360;SDS011;10839;43.206;23.550;2023-05-10T12:51:11;5.97;;;2.55;;
21360;SDS011;10839;43.206;23.550;2023-05-10T12:53:40;2.63;;;2.30;;
21360;SDS011;10839;43.206;23.550;2023-05-10T12:56:06;4.70;;;2.70;;
21360;SDS011;10839;43.206;23.550;2023-05-10T12:58:32;6.75;;;2.78;;
21360;SDS011;10839;43.206;23.550;2023-05-10T13:00:59;4.72;;;2.63;;
21360;SDS011;10839;43.206;23.550;2023-05-10T13:03:25;3.53;;;2.42;;
21360;SDS011;10839;43.206;23.550;2023-05-10T13:05:51;4.63;;;3.00;;
21360;SDS011;10839;43.206;23.550;2023-05-10T13:08:17;6.88;;;2.70;;
21360;SDS011;10839;43.206;23.550;2023-05-10T13:10:43;3.67;;;2.67;;
21360;SDS011;10839;43.206;23.550;2023-05-10T13:13:09;3.58;;;2.60;;
21360;SDS011;10839;43.206;23.550;2023-05-10T13:15:36;7.97;;;2.72;;
21360;SDS011;10839;43.206;23.550;2023-05-10T13:18:01;4.25;;;2.70;;
21360;SDS011;10839;43.206;23.550;2023-05-10T13:20:27;3.67;;;2.58;;
21360;SDS011;10839;43.206;23.550;2023-05-10T13:22:53;6.13;;;2.90;;
21360;SDS011;10839;43.206;23.550;2023-05-10T13:25:19;6.60;;;2.90;;
21360;SDS011;10839;43.206;23.550;2023-05-10T13:27:45;8.52;;;3.03;;
21360;SDS011;10839;43.206;23.550;2023-05-10T13:30:11;4.35;;;2.95;;
21360;SDS011;10839;43.206;23.550;2023-05-10T13:32:37;3.40;;;2.85;;
21360;SDS011;10839;43.206;23.550;2023-05-10T13:35:04;5.07;;;2.80;;
21360;SDS011;10839;43.206;23.550;2023-05-10T13:37:30;4.22;;;2.67;;
21360;SDS011;10839;43.206;23.550;2023-05-10T13:39:56;5.80;;;3.38;;
21360;SDS011;10839;43.206;23.550;2023-05-10T13:42:22;4.90;;;2.80;;
21360;SDS011;10839;43.206;23.550;2023-05-10T13:44:49;4.30;;;2.35;;
21360;SDS011;10839;43.206;23.550;2023-05-10T13:47:15;5.57;;;2.88;;
21360;SDS011;10839;43.206;23.550;2023-05-10T13:49:41;4.22;;;2.50;;
21360;SDS011;10839;43.206;23.550;2023-05-10T13:52:07;6.70;;;3.08;;
21360;SDS011;10839;43.206;23.550;2023-05-10T13:54:35;2.80;;;2.50;;
21360;SDS011;10839;43.206;23.550;2023-05-10T13:57:02;7.32;;;2.72;;
21360;SDS011;10839;43.206;23.550;2023-05-10T13:59:28;3.95;;;2.38;;
21360;SDS011;10839;43.206;23.550;2023-05-10T14:01:57;4.03;;;2.60;;
21360;SDS011;10839;43.206;23.550;2023-05-10T14:04:24;3.95;;;2.60;;
21360;SDS011;10839;43.206;23.550;2023-05-10T14:06:50;5.85;;;2.45;;
21360;SDS011;10839;43.206;23.550;2023-05-10T14:09:16;5.03;;;3.00;;
21360;SDS011;10839;43.206;23.550;2023-05-10T14:11:42;9.65;;;3.15;;
21360;SDS011;10839;43.206;23.550;2023-05-10T14:14:08;7.43;;;2.53;;
21360;SDS011;10839;43.206;23.550;2023-05-10T14:16:34;3.72;;;2.38;;
21360;SDS011;10839;43.206;23.550;2023-05-10T14:19:00;2.83;;;2.53;;
21360;SDS011;10839;43.206;23.550;2023-05-10T14:21:27;6.22;;;2.78;;
21360;SDS011;10839;43.206;23.550;2023-05-10T14:23:55;4.95;;;2.80;;
21360;SDS011;10839;43.206;23.550;2023-05-10T14:26:21;4.90;;;2.47;;
21360;SDS011;10839;43.206;23.550;2023-05-10T14:28:47;4.15;;;3.47;;
21360;SDS011;10839;43.206;23.550;2023-05-10T14:31:13;7.95;;;3.50;;
21360;SDS011;10839;43.206;23.550;2023-05-10T14:33:39;4.30;;;3.13;;
21360;SDS011;10839;43.206;23.550;2023-05-10T14:36:06;4.80;;;3.30;;
21360;SDS011;10839;43.206;23.550;2023-05-10T14:38:32;4.93;;;2.83;;
21360;SDS011;10839;43.206;23.550;2023-05-10T14:40:58;5.40;;;3.00;;
21360;SDS011;10839;43.206;23.550;2023-05-10T14:43:24;4.95;;;2.85;;
21360;SDS011;10839;43.206;23.550;2023-05-10T14:45:50;6.75;;;2.53;;
21360;SDS011;10839;43.206;23.550;2023-05-10T14:48:16;3.63;;;2.70;;
21360;SDS011;10839;43.206;23.550;2023-05-10T14:50:43;6.25;;;2.72;;
21360;SDS011;10839;43.206;23.550;2023-05-10T14:53:09;4.18;;;2.40;;
21360;SDS011;10839;43.206;23.550;2023-05-10T14:55:35;9.43;;;3.15;;
21360;SDS011;10839;43.206;23.550;2023-05-10T14:58:02;3.60;;;3.05;;
21360;SDS011;10839;43.206;23.550;2023-05-10T15:00:28;8.45;;;2.90;;
21360;SDS011;10839;43.206;23.550;2023-05-10T15:02:54;9.70;;;2.85;;